sensor_id;sensor_type;location;lat;lon;timestamp;P1;durP1;ratioP1;P2;durP2;ratioP2
61391;SDS011;47261;52.892;5.738;2023-10-08T00:01:14;4.47;;;1.10;;
61391;SDS011;47261;52.892;5.738;2023-10-08T00:03:41;3.43;;;0.60;;
61391;SDS011;47261;52.892;5.738;2023-10-08T00:06:13;5.20;;;0.57;;
61391;SDS011;47261;52.892;5.738;2023-10-08T00:08:46;4.55;;;0.40;;
61391;SDS011;47261;52.892;5.738;2023-10-08T00:11:12;2.72;;;0.55;;
61391;SDS011;47261;52.892;5.738;2023-10-08T00:13:41;4.13;;;0.57;;
61391;SDS011;47261;52.892;5.738;2023-10-08T00:16:08;3.50;;;0.60;;
61391;SDS011;47261;52.892;5.738;2023-10-08T00:18:35;2.28;;;0.50;;
61391;SDS011;47261;52.892;5.738;2023-10-08T00:21:02;4.22;;;0.70;;
61391;SDS011;47261;52.892;5.738;2023-10-08T00:23:34;2.15;;;0.50;;
61391;SDS011;47261;52.892;5.738;2023-10-08T00:26:00;2.43;;;0.50;;
61391;SDS011;47261;52.892;5.738;2023-10-08T00:28:29;2.30;;;0.50;;
61391;SDS011;47261;52.892;5.738;2023-10-08T00:30:57;2.47;;;0.70;;
61391;SDS011;47261;52.892;5.738;2023-10-08T00:33:23;3.25;;;0.70;;
61391;SDS011;47261;52.892;5.738;2023-10-08T00:35:49;3.43;;;0.90;;
61391;SDS011;47261;52.892;5.738;2023-10-08T00:38:15;5.47;;;1.25;;
61391;SDS011;47261;52.892;5.738;2023-10-08T00:40:42;4.28;;;1.00;;
61391;SDS011;47261;52.892;5.738;2023-10-08T00:43:28;2.97;;;0.90;;
61391;SDS011;47261;52.892;5.738;2023-10-08T00:46:03;10.35;;;1.65;;
61391;SDS011;47261;52.892;5.738;2023-10-08T00:48:31;1.97;;;0.40;;
61391;SDS011;47261;52.892;5.738;2023-10-08T00:51:03;3.55;;;0.30;;
61391;SDS011;47261;52.892;5.738;2023-10-08T00:54:02;1.63;;;0.40;;
61391;SDS011;47261;52.892;5.738;2023-10-08T00:56:35;1.23;;;0.28;;
61391;SDS011;47261;52.892;5.738;2023-10-08T00:59:20;1.63;;;0.30;;
61391;SDS011;47261;52.892;5.738;2023-10-08T01:01:47;1.20;;;0.30;;
61391;SDS011;47261;52.892;5.738;2023-10-08T01:04:22;2.15;;;0.40;;
61391;SDS011;47261;52.892;5.738;2023-10-08T01:06:51;2.60;;;0.30;;
61391;SDS011;47261;52.892;5.738;2023-10-08T01:09:24;3.20;;;0.30;;
61391;SDS011;47261;52.892;5.738;2023-10-08T01:12:06;1.35;;;0.40;;
61391;SDS011;47261;52.892;5.738;2023-10-08T01:15:02;2.07;;;0.40;;
61391;SDS011;47261;52.892;5.738;2023-10-08T01:17:48;1.73;;;0.30;;
61391;SDS011;47261;52.892;5.738;2023-10-08T01:20:29;2.45;;;0.40;;
61391;SDS011;47261;52.892;5.738;2023-10-08T01:23:02;2.30;;;0.50;;
61391;SDS011;47261;52.892;5.738;2023-10-08T01:25:45;3.47;;;0.70;;
61391;SDS011;47261;52.892;5.738;2023-10-08T01:28:20;1.83;;;0.70;;
61391;SDS011;47261;52.892;5.738;2023-10-08T01:30:54;2.97;;;0.70;;
61391;SDS011;47261;52.892;5.738;2023-10-08T01:33:22;3.30;;;0.90;;
61391;SDS011;47261;52.892;5.738;2023-10-08T01:35:53;2.50;;;0.70;;
61391;SDS011;47261;52.892;5.738;2023-10-08T01:38:19;4.40;;;0.88;;
61391;SDS011;47261;52.892;5.738;2023-10-08T01:40:48;3.57;;;0.80;;
61391;SDS011;47261;52.892;5.738;2023-10-08T01:43:17;2.85;;;0.70;;
61391;SDS011;47261;52.892;5.738;2023-10-08T01:45:44;3.53;;;0.88;;
61391;SDS011;47261;52.892;5.738;2023-10-08T01:48:14;2.08;;;0.70;;
61391;SDS011;47261;52.892;5.738;2023-10-08T01:50:56;3.33;;;0.60;;
61391;SDS011;47261;52.892;5.738;2023-10-08T01:53:26;6.07;;;0.60;;
61391;SDS011;47261;52.892;5.738;2023-10-08T01:55:52;3.00;;;0.50;;
61391;SDS011;47261;52.892;5.738;2023-10-08T01:58:19;2.92;;;0.50;;
61391;SDS011;47261;52.892;5.738;2023-10-08T02:00:45;3.45;;;0.32;;
61391;SDS011;47261;52.892;5.738;2023-10-08T02:03:12;1.70;;;0.32;;
61391;SDS011;47261;52.892;5.738;2023-10-08T02:05:43;2.80;;;0.27;;
61391;SDS011;47261;52.892;5.738;2023-10-08T02:08:12;2.22;;;0.35;;
61391;SDS011;47261;52.892;5.738;2023-10-08T02:10:39;1.60;;;0.40;;
61391;SDS011;47261;52.892;5.738;2023-10-08T02:13:06;3.13;;;0.68;;
61391;SDS011;47261;52.892;5.738;2023-10-08T02:15:33;4.50;;;0.75;;
61391;SDS011;47261;52.892;5.738;2023-10-08T02:18:05;6.43;;;0.80;;
61391;SDS011;47261;52.892;5.738;2023-10-08T02:20:31;4.32;;;0.70;;
61391;SDS011;47261;52.892;5.738;2023-10-08T02:22:57;2.65;;;0.88;;
61391;SDS011;47261;52.892;5.738;2023-10-08T02:25:25;4.32;;;0.90;;
61391;SDS011;47261;52.892;5.738;2023-10-08T02:27:50;6.47;;;1.30;;
61391;SDS011;47261;52.892;5.738;2023-10-08T02:30:16;5.93;;;1.10;;
61391;SDS011;47261;52.892;5.738;2023-10-08T02:32:43;8.23;;;1.40;;
61391;SDS011;47261;52.892;5.738;2023-10-08T02:35:12;4.80;;;0.93;;
61391;SDS011;47261;52.892;5.738;2023-10-08T02:37:38;5.83;;;1.17;;
61391;SDS011;47261;52.892;5.738;2023-10-08T02:40:08;4.68;;;1.20;;
61391;SDS011;47261;52.892;5.738;2023-10-08T02:42:56;7.43;;;1.77;;
61391;SDS011;47261;52.892;5.738;2023-10-08T02:45:26;7.70;;;1.80;;
61391;SDS011;47261;52.892;5.738;2023-10-08T02:47:56;6.55;;;2.50;;
61391;SDS011;47261;52.892;5.738;2023-10-08T02:50:22;8.17;;;2.57;;
61391;SDS011;47261;52.892;5.738;2023-10-08T02:52:48;7.43;;;2.40;;
61391;SDS011;47261;52.892;5.738;2023-10-08T02:55:15;10.70;;;2.22;;
61391;SDS011;47261;52.892;5.738;2023-10-08T02:58:00;5.22;;;1.17;;
61391;SDS011;47261;52.892;5.738;2023-10-08T03:00:29;4.00;;;1.00;;
61391;SDS011;47261;52.892;5.738;2023-10-08T03:02:56;4.80;;;1.05;;
61391;SDS011;47261;52.892;5.738;2023-10-08T03:05:22;6.68;;;1.15;;
61391;SDS011;47261;52.892;5.738;2023-10-08T03:07:54;4.38;;;0.98;;
61391;SDS011;47261;52.892;5.738;2023-10-08T03:10:20;5.97;;;1.08;;
61391;SDS011;47261;52.892;5.738;2023-10-08T03:12:47;8.27;;;1.17;;
61391;SDS011;47261;52.892;5.738;2023-10-08T03:15:14;5.95;;;1.17;;
61391;SDS011;47261;52.892;5.738;2023-10-08T03:18:02;4.97;;;0.93;;
61391;SDS011;47261;52.892;5.738;2023-10-08T03:20:39;6.03;;;0.80;;
61391;SDS011;47261;52.892;5.738;2023-10-08T03:23:11;3.80;;;0.70;;
61391;SDS011;47261;52.892;5.738;2023-10-08T03:25:51;4.47;;;0.80;;
61391;SDS011;47261;52.892;5.738;2023-10-08T03:28:23;4.43;;;0.90;;
61391;SDS011;47261;52.892;5.738;2023-10-08T03:30:50;3.42;;;0.70;;
61391;SDS011;47261;52.892;5.738;2023-10-08T03:33:35;5.45;;;0.90;;
61391;SDS011;47261;52.892;5.738;2023-10-08T03:36:03;2.97;;;0.60;;
61391;SDS011;47261;52.892;5.738;2023-10-08T03:38:59;3.35;;;0.70;;
61391;SDS011;47261;52.892;5.738;2023-10-08T03:41:35;8.95;;;0.90;;
61391;SDS011;47261;52.892;5.738;2023-10-08T03:44:05;5.20;;;1.40;;
61391;SDS011;47261;52.892;5.738;2023-10-08T03:46:34;8.52;;;2.00;;
61391;SDS011;47261;52.892;5.738;2023-10-08T03:49:04;9.03;;;1.57;;
61391;SDS011;47261;52.892;5.738;2023-10-08T03:52:00;7.72;;;1.38;;
61391;SDS011;47261;52.892;5.738;2023-10-08T03:54:25;6.80;;;1.50;;
61391;SDS011;47261;52.892;5.738;2023-10-08T03:57:00;7.03;;;1.10;;
61391;SDS011;47261;52.892;5.738;2023-10-08T03:59:29;5.70;;;1.10;;
61391;SDS011;47261;52.892;5.738;2023-10-08T04:01:55;5.53;;;1.30;;
61391;SDS011;47261;52.892;5.738;2023-10-08T04:04:38;7.70;;;1.85;;
61391;SDS011;47261;52.892;5.738;2023-10-08T04:07:17;5.00;;;1.43;;
61391;SDS011;47261;52.892;5.738;2023-10-08T04:09:59;7.93;;;1.58;;
61391;SDS011;47261;52.892;5.738;2023-10-08T04:12:51;6.45;;;1.90;;
61391;SDS011;47261;52.892;5.738;2023-10-08T04:15:18;8.70;;;2.50;;
61391;SDS011;47261;52.892;5.738;2023-10-08T04:17:44;8.48;;;2.95;;
61391;SDS011;47261;52.892;5.738;2023-10-08T04:20:16;6.93;;;2.50;;
61391;SDS011;47261;52.892;5.738;2023-10-08T04:23:01;10.32;;;3.05;;
61391;SDS011;47261;52.892;5.738;2023-10-08T04:25:29;8.02;;;2.88;;
61391;SDS011;47261;52.892;5.738;2023-10-08T04:27:57;7.32;;;2.83;;
61391;SDS011;47261;52.892;5.738;2023-10-08T04:30:24;6.82;;;2.20;;
61391;SDS011;47261;52.892;5.738;2023-10-08T04:32:57;6.83;;;1.83;;
61391;SDS011;47261;52.892;5.738;2023-10-08T04:35:36;5.55;;;1.33;;
61391;SDS011;47261;52.892;5.738;2023-10-08T04:38:09;8.63;;;1.35;;
61391;SDS011;47261;52.892;5.738;2023-10-08T04:40:36;8.57;;;1.50;;
61391;SDS011;47261;52.892;5.738;2023-10-08T04:43:13;5.07;;;1.05;;
61391;SDS011;47261;52.892;5.738;2023-10-08T04:45:50;6.57;;;0.90;;
61391;SDS011;47261;52.892;5.738;2023-10-08T04:48:16;7.50;;;0.93;;
61391;SDS011;47261;52.892;5.738;2023-10-08T04:50:46;4.20;;;0.77;;
61391;SDS011;47261;52.892;5.738;2023-10-08T04:53:16;6.63;;;0.90;;
61391;SDS011;47261;52.892;5.738;2023-10-08T04:55:42;3.93;;;0.80;;
61391;SDS011;47261;52.892;5.738;2023-10-08T04:58:13;4.22;;;0.93;;
61391;SDS011;47261;52.892;5.738;2023-10-08T05:00:46;5.18;;;0.60;;
61391;SDS011;47261;52.892;5.738;2023-10-08T05:03:25;4.40;;;0.70;;
61391;SDS011;47261;52.892;5.738;2023-10-08T05:05:57;5.07;;;0.80;;
61391;SDS011;47261;52.892;5.738;2023-10-08T05:08:32;6.30;;;0.80;;
61391;SDS011;47261;52.892;5.738;2023-10-08T05:11:09;6.32;;;0.70;;
61391;SDS011;47261;52.892;5.738;2023-10-08T05:13:50;7.45;;;1.27;;
61391;SDS011;47261;52.892;5.738;2023-10-08T05:16:30;6.05;;;0.68;;
61391;SDS011;47261;52.892;5.738;2023-10-08T05:19:03;5.97;;;0.60;;
61391;SDS011;47261;52.892;5.738;2023-10-08T05:21:39;8.50;;;0.90;;
61391;SDS011;47261;52.892;5.738;2023-10-08T05:24:17;5.38;;;0.85;;
61391;SDS011;47261;52.892;5.738;2023-10-08T05:26:52;5.28;;;1.02;;
61391;SDS011;47261;52.892;5.738;2023-10-08T05:29:38;4.55;;;0.73;;
61391;SDS011;47261;52.892;5.738;2023-10-08T05:32:39;7.57;;;0.80;;
61391;SDS011;47261;52.892;5.738;2023-10-08T05:35:23;6.33;;;0.70;;
61391;SDS011;47261;52.892;5.738;2023-10-08T05:38:07;8.20;;;1.20;;
61391;SDS011;47261;52.892;5.738;2023-10-08T05:40:52;6.18;;;0.82;;
61391;SDS011;47261;52.892;5.738;2023-10-08T05:43:21;6.45;;;1.05;;
61391;SDS011;47261;52.892;5.738;2023-10-08T05:46:02;6.18;;;0.82;;
61391;SDS011;47261;52.892;5.738;2023-10-08T05:48:54;6.53;;;1.00;;
61391;SDS011;47261;52.892;5.738;2023-10-08T05:51:31;3.97;;;1.00;;
61391;SDS011;47261;52.892;5.738;2023-10-08T05:54:12;3.10;;;0.80;;
61391;SDS011;47261;52.892;5.738;2023-10-08T05:59:37;6.57;;;1.20;;
61391;SDS011;47261;52.892;5.738;2023-10-08T06:02:18;5.60;;;1.00;;
61391;SDS011;47261;52.892;5.738;2023-10-08T06:05:05;7.40;;;1.30;;
61391;SDS011;47261;52.892;5.738;2023-10-08T06:07:39;10.55;;;1.00;;
61391;SDS011;47261;52.892;5.738;2023-10-08T06:10:23;4.65;;;1.10;;
61391;SDS011;47261;52.892;5.738;2023-10-08T06:15:38;4.07;;;1.10;;
61391;SDS011;47261;52.892;5.738;2023-10-08T06:18:21;9.00;;;1.23;;
61391;SDS011;47261;52.892;5.738;2023-10-08T06:20:54;5.05;;;1.30;;
61391;SDS011;47261;52.892;5.738;2023-10-08T06:23:21;6.85;;;1.50;;
61391;SDS011;47261;52.892;5.738;2023-10-08T06:25:50;5.28;;;1.10;;
61391;SDS011;47261;52.892;5.738;2023-10-08T06:28:35;8.23;;;1.40;;
61391;SDS011;47261;52.892;5.738;2023-10-08T06:31:03;11.05;;;1.75;;
61391;SDS011;47261;52.892;5.738;2023-10-08T06:33:37;9.20;;;1.60;;
61391;SDS011;47261;52.892;5.738;2023-10-08T06:36:05;8.65;;;1.65;;
61391;SDS011;47261;52.892;5.738;2023-10-08T06:38:37;9.52;;;1.58;;
61391;SDS011;47261;52.892;5.738;2023-10-08T06:41:09;17.33;;;1.60;;
61391;SDS011;47261;52.892;5.738;2023-10-08T06:43:39;10.27;;;1.63;;
61391;SDS011;47261;52.892;5.738;2023-10-08T06:46:09;10.40;;;1.50;;
61391;SDS011;47261;52.892;5.738;2023-10-08T06:48:37;7.20;;;1.38;;
61391;SDS011;47261;52.892;5.738;2023-10-08T06:51:07;9.95;;;1.30;;
61391;SDS011;47261;52.892;5.738;2023-10-08T06:53:38;6.87;;;1.07;;
61391;SDS011;47261;52.892;5.738;2023-10-08T06:56:04;7.47;;;0.80;;
61391;SDS011;47261;52.892;5.738;2023-10-08T06:58:31;6.18;;;1.30;;
61391;SDS011;47261;52.892;5.738;2023-10-08T07:00:59;11.25;;;1.00;;
61391;SDS011;47261;52.892;5.738;2023-10-08T07:03:33;13.45;;;1.00;;
61391;SDS011;47261;52.892;5.738;2023-10-08T07:06:01;9.53;;;1.10;;
61391;SDS011;47261;52.892;5.738;2023-10-08T07:08:41;10.38;;;0.93;;
61391;SDS011;47261;52.892;5.738;2023-10-08T07:11:12;5.88;;;0.55;;
61391;SDS011;47261;52.892;5.738;2023-10-08T07:13:38;6.45;;;0.70;;
61391;SDS011;47261;52.892;5.738;2023-10-08T07:16:07;8.32;;;0.88;;
61391;SDS011;47261;52.892;5.738;2023-10-08T07:18:39;11.17;;;0.80;;
61391;SDS011;47261;52.892;5.738;2023-10-08T07:21:07;12.57;;;0.90;;
61391;SDS011;47261;52.892;5.738;2023-10-08T07:23:39;7.90;;;0.65;;
61391;SDS011;47261;52.892;5.738;2023-10-08T07:26:21;8.43;;;0.63;;
61391;SDS011;47261;52.892;5.738;2023-10-08T07:28:49;10.70;;;0.90;;
61391;SDS011;47261;52.892;5.738;2023-10-08T07:31:19;9.10;;;0.90;;
61391;SDS011;47261;52.892;5.738;2023-10-08T07:33:46;5.63;;;0.50;;
61391;SDS011;47261;52.892;5.738;2023-10-08T07:36:19;7.45;;;1.02;;
61391;SDS011;47261;52.892;5.738;2023-10-08T07:38:45;8.43;;;0.73;;
61391;SDS011;47261;52.892;5.738;2023-10-08T07:41:12;11.23;;;0.98;;
61391;SDS011;47261;52.892;5.738;2023-10-08T07:43:42;10.18;;;0.90;;
61391;SDS011;47261;52.892;5.738;2023-10-08T07:46:08;8.60;;;0.60;;
61391;SDS011;47261;52.892;5.738;2023-10-08T07:48:34;10.20;;;1.10;;
61391;SDS011;47261;52.892;5.738;2023-10-08T07:51:00;7.37;;;0.70;;
61391;SDS011;47261;52.892;5.738;2023-10-08T07:53:27;5.43;;;0.77;;
61391;SDS011;47261;52.892;5.738;2023-10-08T07:56:03;6.20;;;0.85;;
61391;SDS011;47261;52.892;5.738;2023-10-08T07:58:32;9.88;;;1.00;;
61391;SDS011;47261;52.892;5.738;2023-10-08T08:01:02;18.58;;;2.10;;
61391;SDS011;47261;52.892;5.738;2023-10-08T08:03:32;6.03;;;1.00;;
61391;SDS011;47261;52.892;5.738;2023-10-08T08:05:59;8.65;;;0.90;;
61391;SDS011;47261;52.892;5.738;2023-10-08T08:08:26;6.35;;;0.90;;
61391;SDS011;47261;52.892;5.738;2023-10-08T08:10:52;8.38;;;1.25;;
61391;SDS011;47261;52.892;5.738;2023-10-08T08:13:28;9.93;;;0.73;;
61391;SDS011;47261;52.892;5.738;2023-10-08T08:15:54;7.77;;;1.20;;
61391;SDS011;47261;52.892;5.738;2023-10-08T08:18:24;7.95;;;0.88;;
61391;SDS011;47261;52.892;5.738;2023-10-08T08:20:50;7.57;;;1.20;;
61391;SDS011;47261;52.892;5.738;2023-10-08T08:23:16;6.33;;;0.97;;
61391;SDS011;47261;52.892;5.738;2023-10-08T08:25:42;6.30;;;0.95;;
61391;SDS011;47261;52.892;5.738;2023-10-08T08:28:11;6.45;;;0.90;;
61391;SDS011;47261;52.892;5.738;2023-10-08T08:30:46;11.30;;;1.10;;
61391;SDS011;47261;52.892;5.738;2023-10-08T08:33:13;7.07;;;1.13;;
61391;SDS011;47261;52.892;5.738;2023-10-08T08:35:47;9.48;;;1.20;;
61391;SDS011;47261;52.892;5.738;2023-10-08T08:38:12;9.00;;;1.10;;
61391;SDS011;47261;52.892;5.738;2023-10-08T08:40:39;7.33;;;0.90;;
61391;SDS011;47261;52.892;5.738;2023-10-08T08:43:05;9.18;;;1.00;;
61391;SDS011;47261;52.892;5.738;2023-10-08T08:45:31;6.40;;;1.10;;
61391;SDS011;47261;52.892;5.738;2023-10-08T08:47:58;6.05;;;1.23;;
61391;SDS011;47261;52.892;5.738;2023-10-08T08:50:25;6.03;;;0.85;;
61391;SDS011;47261;52.892;5.738;2023-10-08T08:52:52;9.23;;;1.07;;
61391;SDS011;47261;52.892;5.738;2023-10-08T08:55:18;9.52;;;0.80;;
61391;SDS011;47261;52.892;5.738;2023-10-08T08:57:49;9.68;;;1.10;;
61391;SDS011;47261;52.892;5.738;2023-10-08T09:00:16;10.77;;;1.00;;
61391;SDS011;47261;52.892;5.738;2023-10-08T09:02:46;5.35;;;0.70;;
61391;SDS011;47261;52.892;5.738;2023-10-08T09:05:14;9.23;;;0.90;;
61391;SDS011;47261;52.892;5.738;2023-10-08T09:07:58;4.97;;;0.80;;
61391;SDS011;47261;52.892;5.738;2023-10-08T09:10:28;7.97;;;0.73;;
61391;SDS011;47261;52.892;5.738;2023-10-08T09:12:55;7.78;;;0.82;;
61391;SDS011;47261;52.892;5.738;2023-10-08T09:15:25;8.88;;;0.60;;
61391;SDS011;47261;52.892;5.738;2023-10-08T09:17:55;8.00;;;0.70;;
61391;SDS011;47261;52.892;5.738;2023-10-08T09:20:21;6.18;;;0.63;;
61391;SDS011;47261;52.892;5.738;2023-10-08T09:25:33;6.47;;;0.65;;
61391;SDS011;47261;52.892;5.738;2023-10-08T09:27:59;8.18;;;0.88;;
61391;SDS011;47261;52.892;5.738;2023-10-08T09:30:25;6.37;;;0.63;;
61391;SDS011;47261;52.892;5.738;2023-10-08T09:32:55;5.80;;;0.52;;
61391;SDS011;47261;52.892;5.738;2023-10-08T09:35:20;9.38;;;0.70;;
61391;SDS011;47261;52.892;5.738;2023-10-08T09:37:49;6.20;;;0.80;;
61391;SDS011;47261;52.892;5.738;2023-10-08T09:40:16;7.35;;;0.80;;
61391;SDS011;47261;52.892;5.738;2023-10-08T09:42:46;8.45;;;0.65;;
61391;SDS011;47261;52.892;5.738;2023-10-08T09:45:13;6.82;;;0.70;;
61391;SDS011;47261;52.892;5.738;2023-10-08T09:47:40;8.37;;;1.10;;
61391;SDS011;47261;52.892;5.738;2023-10-08T09:50:10;10.83;;;0.80;;
61391;SDS011;47261;52.892;5.738;2023-10-08T09:52:42;6.68;;;0.70;;
61391;SDS011;47261;52.892;5.738;2023-10-08T09:55:31;6.18;;;0.73;;
61391;SDS011;47261;52.892;5.738;2023-10-08T09:57:57;12.23;;;1.00;;
61391;SDS011;47261;52.892;5.738;2023-10-08T10:00:23;7.17;;;0.80;;
61391;SDS011;47261;52.892;5.738;2023-10-08T10:03:00;7.45;;;1.15;;
61391;SDS011;47261;52.892;5.738;2023-10-08T10:05:32;6.30;;;0.73;;
61391;SDS011;47261;52.892;5.738;2023-10-08T10:08:00;8.23;;;1.00;;
61391;SDS011;47261;52.892;5.738;2023-10-08T10:10:31;6.57;;;0.77;;
61391;SDS011;47261;52.892;5.738;2023-10-08T10:13:00;11.18;;;1.10;;
61391;SDS011;47261;52.892;5.738;2023-10-08T10:15:27;5.50;;;0.60;;
61391;SDS011;47261;52.892;5.738;2023-10-08T10:17:58;8.43;;;0.80;;
61391;SDS011;47261;52.892;5.738;2023-10-08T10:20:57;6.22;;;0.50;;
61391;SDS011;47261;52.892;5.738;2023-10-08T10:23:34;8.53;;;0.97;;
61391;SDS011;47261;52.892;5.738;2023-10-08T10:26:05;4.60;;;0.68;;
61391;SDS011;47261;52.892;5.738;2023-10-08T10:31:43;5.40;;;0.65;;
61391;SDS011;47261;52.892;5.738;2023-10-08T10:34:15;7.28;;;0.90;;
61391;SDS011;47261;52.892;5.738;2023-10-08T10:36:43;6.60;;;0.60;;
61391;SDS011;47261;52.892;5.738;2023-10-08T10:39:13;6.03;;;1.05;;
61391;SDS011;47261;52.892;5.738;2023-10-08T10:41:51;8.45;;;0.75;;
61391;SDS011;47261;52.892;5.738;2023-10-08T10:44:22;7.60;;;0.70;;
61391;SDS011;47261;52.892;5.738;2023-10-08T10:46:49;9.43;;;0.88;;
61391;SDS011;47261;52.892;5.738;2023-10-08T10:49:37;6.70;;;0.80;;
61391;SDS011;47261;52.892;5.738;2023-10-08T10:52:35;7.15;;;0.80;;
61391;SDS011;47261;52.892;5.738;2023-10-08T10:55:11;8.23;;;0.90;;
61391;SDS011;47261;52.892;5.738;2023-10-08T10:57:46;6.78;;;0.63;;
61391;SDS011;47261;52.892;5.738;2023-10-08T11:00:31;9.18;;;0.90;;
61391;SDS011;47261;52.892;5.738;2023-10-08T11:02:57;5.67;;;0.87;;
61391;SDS011;47261;52.892;5.738;2023-10-08T11:05:35;9.40;;;0.77;;
61391;SDS011;47261;52.892;5.738;2023-10-08T11:08:05;6.55;;;0.80;;
61391;SDS011;47261;52.892;5.738;2023-10-08T11:10:36;7.40;;;0.90;;
61391;SDS011;47261;52.892;5.738;2023-10-08T11:13:11;6.32;;;0.60;;
61391;SDS011;47261;52.892;5.738;2023-10-08T11:15:40;7.60;;;0.90;;
61391;SDS011;47261;52.892;5.738;2023-10-08T11:18:14;7.45;;;0.90;;
61391;SDS011;47261;52.892;5.738;2023-10-08T11:20:42;9.65;;;0.82;;
61391;SDS011;47261;52.892;5.738;2023-10-08T11:23:33;6.93;;;0.80;;
61391;SDS011;47261;52.892;5.738;2023-10-08T11:26:06;6.57;;;0.65;;
61391;SDS011;47261;52.892;5.738;2023-10-08T11:28:33;10.27;;;1.35;;
61391;SDS011;47261;52.892;5.738;2023-10-08T11:31:13;7.35;;;0.68;;
61391;SDS011;47261;52.892;5.738;2023-10-08T11:33:43;7.40;;;0.73;;
61391;SDS011;47261;52.892;5.738;2023-10-08T11:36:32;8.07;;;0.70;;
61391;SDS011;47261;52.892;5.738;2023-10-08T11:39:09;10.13;;;1.05;;
61391;SDS011;47261;52.892;5.738;2023-10-08T11:41:36;8.98;;;0.70;;
61391;SDS011;47261;52.892;5.738;2023-10-08T11:44:17;10.23;;;0.90;;
61391;SDS011;47261;52.892;5.738;2023-10-08T11:46:45;5.93;;;0.80;;
61391;SDS011;47261;52.892;5.738;2023-10-08T11:49:12;8.50;;;0.70;;
61391;SDS011;47261;52.892;5.738;2023-10-08T11:51:43;6.95;;;0.90;;
61391;SDS011;47261;52.892;5.738;2023-10-08T11:54:11;10.45;;;1.08;;
61391;SDS011;47261;52.892;5.738;2023-10-08T11:56:38;6.70;;;1.00;;
61391;SDS011;47261;52.892;5.738;2023-10-08T11:59:04;6.87;;;1.00;;
61391;SDS011;47261;52.892;5.738;2023-10-08T12:01:36;5.30;;;0.95;;
61391;SDS011;47261;52.892;5.738;2023-10-08T12:04:03;15.82;;;1.60;;
61391;SDS011;47261;52.892;5.738;2023-10-08T12:06:29;8.23;;;1.02;;
61391;SDS011;47261;52.892;5.738;2023-10-08T12:08:58;7.15;;;1.15;;
61391;SDS011;47261;52.892;5.738;2023-10-08T12:11:24;7.37;;;1.10;;
61391;SDS011;47261;52.892;5.738;2023-10-08T12:13:57;6.28;;;0.85;;
61391;SDS011;47261;52.892;5.738;2023-10-08T12:16:26;11.98;;;1.10;;
61391;SDS011;47261;52.892;5.738;2023-10-08T12:18:55;6.90;;;1.00;;
61391;SDS011;47261;52.892;5.738;2023-10-08T12:21:26;4.93;;;0.73;;
61391;SDS011;47261;52.892;5.738;2023-10-08T12:23:59;5.50;;;0.63;;
61391;SDS011;47261;52.892;5.738;2023-10-08T12:26:26;8.70;;;0.93;;
61391;SDS011;47261;52.892;5.738;2023-10-08T12:28:52;8.52;;;0.80;;
61391;SDS011;47261;52.892;5.738;2023-10-08T12:31:19;6.40;;;1.30;;
61391;SDS011;47261;52.892;5.738;2023-10-08T12:33:49;10.50;;;1.30;;
61391;SDS011;47261;52.892;5.738;2023-10-08T12:36:18;6.13;;;0.90;;
61391;SDS011;47261;52.892;5.738;2023-10-08T12:38:48;7.85;;;0.80;;
61391;SDS011;47261;52.892;5.738;2023-10-08T12:41:13;5.18;;;0.60;;
61391;SDS011;47261;52.892;5.738;2023-10-08T12:43:40;4.93;;;0.80;;
61391;SDS011;47261;52.892;5.738;2023-10-08T12:46:17;5.45;;;0.70;;
61391;SDS011;47261;52.892;5.738;2023-10-08T12:48:47;8.52;;;1.00;;
61391;SDS011;47261;52.892;5.738;2023-10-08T12:51:17;8.45;;;1.20;;
61391;SDS011;47261;52.892;5.738;2023-10-08T12:53:43;7.63;;;1.07;;
61391;SDS011;47261;52.892;5.738;2023-10-08T12:56:16;6.43;;;0.85;;
61391;SDS011;47261;52.892;5.738;2023-10-08T12:58:42;5.70;;;0.80;;
61391;SDS011;47261;52.892;5.738;2023-10-08T13:01:13;10.07;;;0.90;;
61391;SDS011;47261;52.892;5.738;2023-10-08T13:03:42;10.48;;;1.27;;
61391;SDS011;47261;52.892;5.738;2023-10-08T13:06:14;9.17;;;0.90;;
61391;SDS011;47261;52.892;5.738;2023-10-08T13:08:47;4.47;;;0.60;;
61391;SDS011;47261;52.892;5.738;2023-10-08T13:11:14;6.63;;;1.05;;
61391;SDS011;47261;52.892;5.738;2023-10-08T13:13:40;12.00;;;0.90;;
61391;SDS011;47261;52.892;5.738;2023-10-08T13:16:06;7.53;;;1.07;;
61391;SDS011;47261;52.892;5.738;2023-10-08T13:18:35;8.93;;;0.90;;
61391;SDS011;47261;52.892;5.738;2023-10-08T13:21:07;8.55;;;0.70;;
61391;SDS011;47261;52.892;5.738;2023-10-08T13:23:34;8.38;;;0.75;;
61391;SDS011;47261;52.892;5.738;2023-10-08T13:26:01;5.28;;;0.75;;
61391;SDS011;47261;52.892;5.738;2023-10-08T13:28:29;6.43;;;0.83;;
61391;SDS011;47261;52.892;5.738;2023-10-08T13:30:58;7.03;;;0.82;;
61391;SDS011;47261;52.892;5.738;2023-10-08T13:33:37;5.70;;;0.90;;
61391;SDS011;47261;52.892;5.738;2023-10-08T13:36:08;7.43;;;1.00;;
61391;SDS011;47261;52.892;5.738;2023-10-08T13:38:38;8.23;;;0.80;;
61391;SDS011;47261;52.892;5.738;2023-10-08T13:41:06;7.57;;;1.03;;
61391;SDS011;47261;52.892;5.738;2023-10-08T13:43:43;6.97;;;0.82;;
61391;SDS011;47261;52.892;5.738;2023-10-08T13:46:14;7.10;;;0.82;;
61391;SDS011;47261;52.892;5.738;2023-10-08T13:48:44;7.40;;;1.10;;
61391;SDS011;47261;52.892;5.738;2023-10-08T13:51:13;11.20;;;0.85;;
61391;SDS011;47261;52.892;5.738;2023-10-08T13:53:48;6.83;;;0.80;;
61391;SDS011;47261;52.892;5.738;2023-10-08T13:56:17;7.20;;;0.73;;
61391;SDS011;47261;52.892;5.738;2023-10-08T13:58:45;9.82;;;1.00;;
61391;SDS011;47261;52.892;5.738;2023-10-08T14:01:14;5.90;;;0.90;;
61391;SDS011;47261;52.892;5.738;2023-10-08T14:03:47;9.55;;;1.17;;
61391;SDS011;47261;52.892;5.738;2023-10-08T14:06:14;6.80;;;0.63;;
61391;SDS011;47261;52.892;5.738;2023-10-08T14:08:41;11.35;;;0.80;;
61391;SDS011;47261;52.892;5.738;2023-10-08T14:11:09;5.95;;;0.90;;
61391;SDS011;47261;52.892;5.738;2023-10-08T14:13:38;6.55;;;1.08;;
61391;SDS011;47261;52.892;5.738;2023-10-08T14:16:07;4.47;;;0.70;;
61391;SDS011;47261;52.892;5.738;2023-10-08T14:18:36;11.20;;;0.90;;
61391;SDS011;47261;52.892;5.738;2023-10-08T14:21:08;8.32;;;1.42;;
61391;SDS011;47261;52.892;5.738;2023-10-08T14:23:37;8.07;;;0.70;;
61391;SDS011;47261;52.892;5.738;2023-10-08T14:26:05;8.63;;;0.80;;
61391;SDS011;47261;52.892;5.738;2023-10-08T14:28:34;14.30;;;1.02;;
61391;SDS011;47261;52.892;5.738;2023-10-08T14:31:07;6.83;;;1.00;;
61391;SDS011;47261;52.892;5.738;2023-10-08T14:33:34;8.13;;;0.98;;
61391;SDS011;47261;52.892;5.738;2023-10-08T14:36:10;8.32;;;1.30;;
61391;SDS011;47261;52.892;5.738;2023-10-08T14:38:54;5.90;;;0.77;;
61391;SDS011;47261;52.892;5.738;2023-10-08T14:41:39;7.25;;;0.60;;
61391;SDS011;47261;52.892;5.738;2023-10-08T14:44:23;7.47;;;0.80;;
61391;SDS011;47261;52.892;5.738;2023-10-08T14:46:49;6.22;;;0.88;;
61391;SDS011;47261;52.892;5.738;2023-10-08T14:49:16;8.43;;;1.08;;
61391;SDS011;47261;52.892;5.738;2023-10-08T14:51:42;7.03;;;0.90;;
61391;SDS011;47261;52.892;5.738;2023-10-08T14:54:08;11.00;;;0.90;;
61391;SDS011;47261;52.892;5.738;2023-10-08T14:56:37;7.53;;;1.30;;
61391;SDS011;47261;52.892;5.738;2023-10-08T14:59:04;4.63;;;0.63;;
61391;SDS011;47261;52.892;5.738;2023-10-08T15:01:30;9.70;;;0.93;;
61391;SDS011;47261;52.892;5.738;2023-10-08T15:03:58;7.70;;;0.77;;
61391;SDS011;47261;52.892;5.738;2023-10-08T15:06:29;6.43;;;0.70;;
61391;SDS011;47261;52.892;5.738;2023-10-08T15:08:55;3.85;;;0.65;;
61391;SDS011;47261;52.892;5.738;2023-10-08T15:11:22;5.70;;;0.80;;
61391;SDS011;47261;52.892;5.738;2023-10-08T15:13:48;6.65;;;0.57;;
61391;SDS011;47261;52.892;5.738;2023-10-08T15:16:19;7.07;;;0.80;;
61391;SDS011;47261;52.892;5.738;2023-10-08T15:18:48;8.57;;;0.95;;
61391;SDS011;47261;52.892;5.738;2023-10-08T15:21:14;7.22;;;0.70;;
61391;SDS011;47261;52.892;5.738;2023-10-08T15:23:40;5.88;;;0.57;;